logo
Search for airport 
image banner adimage banner adimage banner ad
image banner ad

FA0012 - The Coves Estate Airstrip, Hartbeespoort

Located in , South Africa

ICAO - , IATA -

Data provided by Airmate  

General information

Coordinates: S25°46'38" E27°47'35"
Elevation is 3902 feet MSL.
 
View others Airports in North-West

Operational data

Special qualification required
Current time UTC:
Current local time:
Weather at : FALA - Lanseria International ( 22 km )
METAR: FALA 180700Z VRB02KT CAVOK 17/11 Q1030 NOSIG
TAF: TAF FALA 180400Z 1806/1906 VRB03KT CAVOK TX23/1812Z TN12/1904Z
View NOTAMs / SUP AIP / TFR affecting this airport [VIEW]
Communications frequencies: [VIEW]

Runways:

Airport contact information

Address: South Africa

Satellite view of FA0012